createdAt,value
2023-04-26T00:01:23.904Z,17.15
2023-04-26T00:04:00.919Z,17.15
2023-04-26T00:06:34.975Z,17.14
2023-04-26T00:09:30.464Z,17.14
2023-04-26T00:12:03.517Z,17.13
2023-04-26T00:14:36.072Z,17.12
2023-04-26T00:17:33.519Z,17.11
2023-04-26T00:23:04.535Z,17.08
2023-04-26T00:25:37.775Z,17.07
2023-04-26T00:28:10.400Z,17.06
2023-04-26T00:31:03.057Z,17.05
2023-04-26T00:33:38.425Z,17.04
2023-04-26T00:36:14.182Z,17.04
2023-04-26T00:39:08.112Z,17.02
2023-04-26T00:41:47.989Z,17.00
2023-04-26T00:44:24.448Z,16.99
2023-04-26T00:47:02.823Z,16.99
2023-04-26T00:49:35.577Z,16.98
2023-04-26T00:52:32.008Z,16.96
2023-04-26T00:55:07.646Z,16.96
2023-04-26T00:57:40.718Z,16.95
2023-04-26T01:00:38.166Z,16.94
2023-04-26T01:03:11.904Z,16.93
2023-04-26T01:05:45.460Z,16.92
2023-04-26T01:08:21.098Z,16.91
2023-04-26T01:10:54.611Z,16.90
2023-04-26T01:13:27.732Z,16.88
2023-04-26T01:16:01.656Z,16.88
2023-04-26T01:21:33.338Z,16.85
2023-04-26T01:24:06.938Z,16.85
2023-04-26T01:32:37.855Z,16.82
2023-04-26T01:35:32.814Z,16.81
2023-04-26T01:38:05.505Z,16.81
2023-04-26T01:40:38.148Z,16.80
2023-04-26T01:46:05.974Z,16.78
2023-04-26T01:48:38.446Z,16.77
2023-04-26T01:54:51.596Z,16.74
2023-04-26T01:57:44.529Z,16.73
2023-04-26T02:00:17.293Z,16.71
2023-04-26T02:02:50.074Z,16.71
2023-04-26T02:05:44.209Z,16.70
2023-04-26T02:08:16.741Z,16.69
2023-04-26T02:10:49.323Z,16.68
2023-04-26T02:16:21.396Z,16.66
2023-04-26T02:19:15.353Z,16.65
2023-04-26T02:22:14.937Z,16.64
2023-04-26T02:25:08.077Z,16.64
2023-04-26T02:27:41.088Z,16.62
2023-04-26T02:30:16.864Z,16.62
2023-04-26T02:33:07.476Z,16.61
2023-04-26T02:35:59.020Z,16.60
2023-04-26T02:38:53.551Z,16.58
2023-04-26T02:41:26.513Z,16.58
2023-04-26T02:44:01.430Z,16.57
2023-04-26T02:46:34.090Z,16.56
2023-04-26T02:49:06.679Z,16.55
2023-04-26T02:51:39.331Z,16.54
2023-04-26T02:54:32.127Z,16.53
2023-04-26T02:57:42.074Z,16.52
2023-04-26T03:00:36.186Z,16.50
2023-04-26T03:03:15.634Z,16.50
2023-04-26T03:06:12.795Z,16.48
2023-04-26T03:08:43.814Z,16.46
2023-04-26T03:11:16.428Z,16.45
2023-04-26T03:13:49.034Z,16.44
2023-04-26T03:19:15.642Z,16.43
2023-04-26T03:21:48.274Z,16.41
2023-04-26T03:24:20.906Z,16.40
2023-04-26T03:27:12.021Z,16.40
2023-04-26T03:29:44.587Z,16.39
2023-04-26T03:32:17.249Z,16.38
2023-04-26T03:34:50.076Z,16.38
2023-04-26T03:37:22.683Z,16.36
2023-04-26T03:39:55.353Z,16.36
2023-04-26T03:42:48.969Z,16.34
2023-04-26T03:45:29.793Z,16.33
2023-04-26T03:48:02.493Z,16.33
2023-04-26T03:50:36.765Z,16.31
2023-04-26T03:53:09.302Z,16.30
2023-04-26T03:56:05.072Z,16.29
2023-04-26T03:58:53.199Z,16.28
2023-04-26T04:01:47.002Z,16.26
2023-04-26T04:04:19.818Z,16.26
2023-04-26T04:06:52.651Z,16.24
2023-04-26T04:09:43.903Z,16.23
2023-04-26T04:12:40.930Z,16.23
2023-04-26T04:15:13.667Z,16.21
2023-04-26T04:17:46.715Z,16.21
2023-04-26T04:20:42.928Z,16.21
2023-04-26T04:23:17.119Z,16.19
2023-04-26T04:26:12.684Z,16.19
2023-04-26T04:28:52.269Z,16.18
2023-04-26T04:31:25.274Z,16.18
2023-04-26T04:34:19.904Z,16.17
2023-04-26T04:36:52.705Z,16.16
2023-04-26T04:39:25.318Z,16.15
2023-04-26T04:44:51.011Z,16.14
2023-04-26T04:47:24.472Z,16.13
2023-04-26T04:49:57.715Z,16.12
2023-04-26T04:52:30.371Z,16.12
2023-04-26T04:55:04.394Z,16.11
2023-04-26T05:00:34.216Z,16.10
2023-04-26T05:05:58.118Z,16.10
2023-04-26T05:08:30.745Z,16.11
2023-04-26T05:11:05.414Z,16.11
2023-04-26T05:13:38.057Z,16.12
2023-04-26T05:16:30.829Z,16.14
2023-04-26T05:19:03.587Z,16.15
2023-04-26T05:21:36.790Z,16.18
2023-04-26T05:24:09.448Z,16.23
2023-04-26T05:27:11.552Z,16.26
2023-04-26T05:32:36.982Z,16.38
2023-04-26T05:35:12.857Z,16.43
2023-04-26T05:37:45.886Z,16.50
2023-04-26T05:40:20.698Z,16.55
2023-04-26T05:42:53.430Z,16.60
2023-04-26T05:45:26.247Z,16.65
2023-04-26T05:51:19.709Z,16.77
2023-04-26T06:13:21.215Z,17.32
2023-04-26T06:15:54.357Z,17.38
2023-04-26T06:18:50.317Z,17.44
2023-04-26T06:21:51.767Z,17.50
2023-04-26T06:30:19.190Z,17.67
2023-04-26T06:32:51.851Z,17.73
2023-04-26T06:38:17.417Z,17.80
2023-04-26T06:41:01.236Z,17.83
2023-04-26T06:43:52.532Z,17.85
2023-04-26T06:46:26.919Z,17.88
2023-04-26T06:49:06.772Z,17.91
2023-04-26T06:57:43.896Z,18.01
2023-04-26T07:00:17.997Z,18.03
2023-04-26T07:02:50.807Z,18.05
2023-04-26T07:05:24.446Z,18.05
2023-04-26T07:07:57.105Z,18.07
2023-04-26T07:10:47.903Z,18.08
2023-04-26T07:13:20.498Z,18.09
2023-04-26T07:16:20.045Z,18.10
2023-04-26T07:19:06.870Z,18.13
2023-04-26T07:21:51.138Z,18.16
2023-04-26T07:24:26.780Z,18.17
2023-04-26T07:27:49.086Z,18.17
2023-04-26T07:30:27.085Z,18.19
2023-04-26T07:36:17.125Z,18.20
2023-04-26T07:40:00.979Z,18.22
2023-04-26T07:42:59.091Z,18.24
2023-04-26T07:45:42.263Z,18.26
2023-04-26T07:48:24.104Z,18.26
2023-04-26T07:50:56.861Z,18.28
2023-04-26T07:53:30.749Z,18.30
2023-04-26T07:56:24.398Z,18.31
2023-04-26T07:59:23.127Z,18.31
2023-04-26T08:01:58.653Z,18.33
2023-04-26T08:04:59.494Z,18.34
2023-04-26T08:11:59.886Z,18.38
2023-04-26T08:14:55.209Z,18.40
2023-04-26T08:18:06.693Z,18.41
2023-04-26T08:20:39.726Z,18.41
2023-04-26T08:23:12.740Z,18.42
2023-04-26T08:25:54.208Z,18.46
2023-04-26T08:28:26.896Z,18.48
2023-04-26T08:30:59.490Z,18.51
2023-04-26T08:33:32.312Z,18.53
2023-04-26T08:36:06.361Z,18.55
2023-04-26T08:38:54.772Z,18.55
2023-04-26T08:41:50.971Z,18.55
2023-04-26T08:44:26.801Z,18.56
2023-04-26T08:47:44.501Z,18.56
2023-04-26T08:50:39.118Z,18.57
2023-04-26T08:53:35.415Z,18.58
2023-04-26T08:56:28.935Z,18.59
2023-04-26T08:59:23.719Z,18.60
2023-04-26T09:04:54.261Z,18.61
2023-04-26T09:07:51.318Z,18.61
2023-04-26T09:10:24.147Z,18.62
2023-04-26T09:12:56.933Z,18.63
2023-04-26T09:15:53.555Z,18.63
2023-04-26T09:18:26.590Z,18.65
2023-04-26T09:24:14.048Z,18.69
2023-04-26T09:27:09.874Z,18.69
2023-04-26T09:30:15.775Z,18.72
2023-04-26T09:32:59.735Z,18.75
2023-04-26T09:35:43.273Z,18.76
2023-04-26T09:41:20.305Z,18.82
2023-04-26T09:43:53.127Z,18.86
2023-04-26T09:46:25.928Z,18.88
2023-04-26T09:52:01.791Z,18.92
2023-04-26T09:54:57.273Z,18.94
2023-04-26T09:58:26.890Z,18.97
2023-04-26T10:01:26.796Z,19.01
2023-04-26T10:04:27.703Z,19.04
2023-04-26T10:10:13.377Z,19.12
2023-04-26T10:15:45.245Z,19.19
2023-04-26T10:30:14.160Z,19.26
2023-04-26T10:33:29.837Z,19.28
2023-04-26T10:39:56.710Z,19.32
2023-04-26T10:42:34.864Z,19.37
2023-04-26T10:45:34.862Z,19.38
2023-04-26T10:48:43.270Z,19.40
2023-04-26T10:55:15.853Z,19.46
2023-04-26T10:57:52.909Z,19.49
2023-04-26T11:00:34.785Z,19.50
2023-04-26T11:12:00.275Z,19.57
2023-04-26T11:25:13.468Z,19.55
2023-04-26T11:28:02.545Z,19.54
2023-04-26T11:30:35.404Z,19.56
2023-04-26T11:33:55.212Z,19.55
2023-04-26T11:36:28.511Z,19.58
2023-04-26T11:39:09.542Z,19.58
2023-04-26T11:41:42.255Z,19.59
2023-04-26T11:44:23.640Z,19.60
2023-04-26T12:00:08.966Z,19.60
2023-04-26T12:02:46.647Z,19.62
2023-04-26T12:05:48.624Z,19.64
2023-04-26T12:08:24.828Z,19.66
2023-04-26T12:11:02.313Z,19.67
2023-04-26T12:13:35.622Z,19.48
2023-04-26T12:16:22.177Z,19.69
2023-04-26T12:19:09.869Z,19.70
2023-04-26T12:21:44.266Z,19.71
2023-04-26T12:24:29.728Z,19.71
2023-04-26T12:27:04.418Z,19.73
2023-04-26T12:46:58.279Z,19.77
2023-04-26T12:49:40.057Z,19.78
2023-04-26T12:52:12.840Z,19.78
2023-04-26T12:54:57.978Z,19.81
2023-04-26T12:57:42.073Z,19.82
2023-04-26T13:00:24.575Z,19.83
2023-04-26T13:03:14.878Z,19.80
2023-04-26T13:05:47.971Z,19.80
2023-04-26T13:08:23.431Z,19.79
2023-04-26T13:10:58.442Z,19.79
2023-04-26T13:13:46.693Z,19.78
2023-04-26T13:16:26.235Z,19.78
2023-04-26T13:19:07.598Z,19.78
2023-04-26T13:21:46.124Z,19.77
2023-04-26T13:24:41.037Z,19.78
2023-04-26T13:27:31.376Z,19.78
2023-04-26T13:30:05.169Z,19.79
2023-04-26T13:33:27.173Z,19.79
2023-04-26T13:36:09.915Z,19.80
2023-04-26T13:38:52.079Z,19.81
2023-04-26T14:04:41.830Z,19.74
2023-04-26T14:21:11.778Z,19.68
2023-04-26T14:23:59.491Z,19.66
2023-04-26T14:27:05.940Z,19.64
2023-04-26T14:33:29.575Z,19.61
2023-04-26T14:39:31.975Z,19.59
2023-04-26T14:42:05.145Z,19.58
2023-04-26T14:44:37.876Z,19.56
2023-04-26T14:47:14.628Z,19.56
2023-04-26T14:49:49.594Z,19.55
2023-04-26T15:24:44.474Z,19.47
2023-04-26T15:40:39.623Z,19.47
2023-04-26T15:50:21.615Z,19.46
2023-04-26T15:52:58.282Z,19.45
2023-04-26T16:21:16.682Z,19.29
2023-04-26T16:23:52.098Z,19.28
2023-04-26T16:26:24.863Z,19.28
2023-04-26T16:31:52.646Z,19.24
2023-04-26T16:34:37.570Z,19.22
2023-04-26T16:37:10.206Z,19.22
2023-04-26T16:39:51.853Z,19.21
2023-04-26T16:42:24.548Z,19.19
2023-04-26T16:44:57.217Z,19.18
2023-04-26T16:47:42.354Z,19.16
2023-04-26T16:51:12.394Z,19.15
2023-04-26T16:56:32.270Z,19.13
2023-04-26T16:59:04.910Z,19.12
2023-04-26T17:02:12.932Z,19.09
2023-04-26T17:13:56.344Z,19.04
2023-04-26T17:27:47.739Z,18.97
2023-04-26T17:30:41.183Z,18.96
2023-04-26T17:33:37.095Z,18.94
2023-04-26T17:37:10.362Z,18.92
2023-04-26T17:39:43.797Z,18.90
2023-04-26T17:42:16.309Z,18.88
2023-04-26T17:44:58.164Z,18.89
2023-04-26T17:47:34.068Z,18.88
2023-04-26T19:56:27.190Z,19.18
2023-04-26T20:01:53.913Z,19.14
2023-04-26T20:04:47.380Z,19.13
2023-04-26T20:07:37.698Z,19.12
2023-04-26T20:10:43.039Z,19.11
2023-04-26T20:13:21.780Z,19.08
2023-04-26T20:24:09.353Z,19.05
2023-04-26T20:36:07.892Z,18.98
2023-04-26T20:38:40.584Z,18.96
2023-04-26T20:41:13.125Z,18.96
2023-04-26T20:43:45.711Z,18.93
2023-04-26T20:46:18.492Z,18.92
2023-04-26T20:48:59.696Z,18.91
2023-04-26T20:51:33.469Z,18.90
2023-04-26T20:54:21.528Z,18.88
2023-04-26T20:56:54.258Z,18.87
2023-04-26T20:59:30.084Z,18.86
2023-04-26T21:02:03.038Z,18.84
2023-04-26T21:04:38.774Z,18.83
2023-04-26T21:07:12.402Z,18.82
2023-04-26T21:10:13.284Z,18.80
2023-04-26T21:23:50.628Z,18.73
2023-04-26T21:27:19.394Z,18.71
2023-04-26T21:29:57.973Z,18.70
2023-04-26T21:32:30.692Z,18.68
2023-04-26T21:35:03.769Z,18.67
2023-04-26T21:37:36.680Z,18.65
2023-04-26T21:40:19.851Z,18.64
2023-04-26T21:43:04.349Z,18.62
2023-04-26T21:45:50.135Z,18.62
2023-04-26T21:48:47.657Z,18.61
2023-04-26T21:51:21.833Z,18.60
2023-04-26T21:53:54.605Z,18.58
2023-04-26T21:56:27.505Z,18.57
2023-04-26T21:59:02.693Z,18.56
2023-04-26T22:01:36.766Z,18.53
2023-04-26T22:04:10.850Z,18.52
2023-04-26T22:06:52.504Z,18.51
2023-04-26T22:09:25.254Z,18.49
2023-04-26T22:11:57.849Z,18.48
2023-04-26T22:14:53.987Z,18.47
2023-04-26T22:17:34.025Z,18.45
2023-04-26T22:20:07.632Z,18.44
2023-04-26T22:22:40.820Z,18.43
2023-04-26T22:25:40.533Z,18.42
2023-04-26T22:28:28.538Z,18.40
2023-04-26T22:31:06.581Z,18.39
2023-04-26T22:33:42.137Z,18.38
2023-04-26T22:36:15.042Z,18.36
2023-04-26T22:39:09.461Z,18.35
2023-04-26T22:42:00.562Z,18.34
2023-04-26T22:44:33.539Z,18.32
2023-04-26T22:47:26.614Z,18.30
2023-04-26T22:49:59.276Z,18.28
2023-04-26T22:52:32.438Z,18.28
2023-04-26T22:55:06.260Z,18.27
2023-04-26T22:57:56.163Z,18.25
2023-04-26T23:00:28.792Z,18.24
2023-04-26T23:03:01.565Z,18.23
2023-04-26T23:05:43.340Z,18.22
2023-04-26T23:11:12.316Z,18.19
2023-04-26T23:14:08.340Z,18.18
2023-04-26T23:16:42.567Z,18.16
2023-04-26T23:19:30.118Z,18.15
2023-04-26T23:22:02.816Z,18.12
2023-04-26T23:25:24.585Z,18.11
2023-04-26T23:31:26.322Z,18.07
2023-04-26T23:34:17.544Z,18.05
2023-04-26T23:37:08.220Z,18.02
2023-04-26T23:42:39.802Z,17.98
2023-04-26T23:45:12.483Z,17.98
2023-04-26T23:47:50.172Z,17.97
2023-04-26T23:50:22.925Z,17.96
2023-04-26T23:52:57.549Z,17.95
2023-04-26T23:55:30.216Z,17.93
2023-04-26T23:58:03.881Z,17.92
